Time;durP1;ratioP1;P1;durP2;ratioP2;P2;SDS_P1;SDS_P2;PMS_P1;PMS_P2;Temp;Humidity;BMP_temperature;BMP_pressure;BME280_temperature;BME280_humidity;BME280_pressure;Samples;Min_cycle;Max_cycle;Signal;HPM_P1;HPM_P2
2024/02/01 00:00:16;;;;;;;0.90;0.70;;;8.30;99.90;;;;;;5096404;28;20443;-80
2024/02/01 00:02:43;;;;;;;1.07;0.90;;;8.20;99.90;;;;;;5096141;28;20428;-80
2024/02/01 00:05:10;;;;;;;0.80;0.77;;;8.20;99.90;;;;;;5096052;28;20444;-80
2024/02/01 00:07:37;;;;;;;1.13;0.57;;;8.30;99.90;;;;;;5095555;28;21008;-80
2024/02/01 00:10:06;;;;;;;1.27;0.70;;;8.40;99.90;;;;;;5095612;28;20443;-80
2024/02/01 00:12:33;;;;;;;1.17;1.17;;;8.40;99.90;;;;;;5095673;28;20441;-80
2024/02/01 00:15:00;;;;;;;2.97;0.60;;;8.40;99.90;;;;;;5096061;28;20463;-80
2024/02/01 00:17:26;;;;;;;2.80;0.80;;;8.50;99.90;;;;;;5102703;28;20476;-80
2024/02/01 00:19:53;;;;;;;1.30;0.90;;;8.60;99.90;;;;;;5107485;28;20436;-80
2024/02/01 00:22:20;;;;;;;0.60;0.50;;;8.60;99.90;;;;;;5107547;28;20467;-80
2024/02/01 00:24:46;;;;;;;0.70;0.70;;;8.60;99.90;;;;;;5107120;28;20452;-80
2024/02/01 00:27:15;;;;;;;1.07;0.93;;;8.60;99.90;;;;;;5107581;28;20444;-81
2024/02/01 00:29:41;;;;;;;2.57;1.00;;;8.60;99.90;;;;;;5107205;28;20455;-81
2024/02/01 00:32:08;;;;;;;1.23;0.60;;;8.60;99.90;;;;;;5106870;28;20467;-81
2024/02/01 00:34:35;;;;;;;0.67;0.67;;;8.70;99.90;;;;;;5102685;28;20551;-80
2024/02/01 00:37:01;;;;;;;1.53;0.73;;;8.70;99.90;;;;;;5098696;28;20480;-81
2024/02/01 00:39:28;;;;;;;2.20;0.90;;;8.80;99.90;;;;;;5100099;28;20536;-80
2024/02/01 00:41:55;;;;;;;1.77;0.93;;;8.70;99.90;;;;;;5099375;28;20452;-80
2024/02/01 00:44:23;;;;;;;0.93;0.80;;;8.80;99.90;;;;;;5099377;28;20448;-81
2024/02/01 00:46:49;;;;;;;1.17;0.83;;;8.80;99.90;;;;;;5098899;28;20448;-81
2024/02/01 00:49:16;;;;;;;1.90;0.90;;;8.80;99.90;;;;;;5098830;28;20428;-80
2024/02/01 00:51:43;;;;;;;2.30;1.70;;;8.70;99.90;;;;;;5099054;28;20472;-81
2024/02/01 00:54:10;;;;;;;1.60;1.27;;;8.70;99.90;;;;;;5099246;28;20495;-80
2024/02/01 00:56:36;;;;;;;1.73;1.27;;;8.70;99.90;;;;;;5098881;28;20475;-80
2024/02/01 00:59:03;;;;;;;2.20;1.30;;;8.70;99.90;;;;;;5099185;28;20777;-80
2024/02/01 01:01:31;;;;;;;2.93;1.40;;;8.60;99.90;;;;;;5098491;28;20443;-80
2024/02/01 01:03:58;;;;;;;2.70;1.57;;;8.60;99.90;;;;;;5098306;28;20458;-80
2024/02/01 01:06:24;;;;;;;2.03;1.50;;;8.50;99.90;;;;;;5098093;28;20435;-80
2024/02/01 01:08:51;;;;;;;8.23;2.07;;;8.50;99.90;;;;;;5098052;28;20486;-80
2024/02/01 01:11:18;;;;;;;3.07;1.93;;;8.50;99.90;;;;;;5098081;28;20460;-80
2024/02/01 01:13:44;;;;;;;3.83;1.90;;;8.40;99.90;;;;;;5097843;28;20440;-80
2024/02/01 01:16:11;;;;;;;1.30;1.17;;;8.30;99.90;;;;;;5097725;28;20484;-80
2024/02/01 01:18:39;;;;;;;2.07;1.23;;;8.20;99.90;;;;;;5097324;28;20463;-80
2024/02/01 01:21:06;;;;;;;3.67;1.30;;;8.20;99.90;;;;;;5097769;28;20468;-80
2024/02/01 01:23:33;;;;;;;1.37;0.83;;;8.10;99.90;;;;;;5097175;28;20960;-80
2024/02/01 01:26:00;;;;;;;3.30;1.47;;;8.00;99.90;;;;;;5097523;28;20534;-80
2024/02/01 01:28:26;;;;;;;2.30;1.27;;;8.00;99.90;;;;;;5097417;28;20444;-80
2024/02/01 01:30:53;;;;;;;4.07;2.03;;;7.90;99.90;;;;;;5097016;28;20459;-80
2024/02/01 01:33:20;;;;;;;2.50;1.40;;;8.00;99.90;;;;;;5096502;28;20437;-80
2024/02/01 01:35:48;;;;;;;3.03;1.10;;;8.10;99.90;;;;;;5096870;28;20812;-80
2024/02/01 01:38:15;;;;;;;1.40;0.97;;;8.10;99.90;;;;;;5097230;28;20448;-80
2024/02/01 01:40:41;;;;;;;1.90;1.03;;;8.10;99.90;;;;;;5099642;28;20460;-80
2024/02/01 01:43:08;;;;;;;2.80;1.70;;;8.10;99.90;;;;;;5102506;28;20544;-80
2024/02/01 01:45:35;;;;;;;2.07;1.10;;;8.10;99.90;;;;;;5104157;28;20440;-80
2024/02/01 01:48:02;;;;;;;5.30;1.40;;;8.10;99.90;;;;;;5106662;28;20862;-79
2024/02/01 01:50:29;;;;;;;5.90;1.57;;;8.10;99.90;;;;;;5105617;28;20471;-81
2024/02/01 01:52:58;;;;;;;1.50;1.07;;;8.20;99.90;;;;;;5107782;28;20817;-80
2024/02/01 01:55:26;;;;;;;1.83;1.53;;;8.20;99.90;;;;;;5105013;28;20435;-82
2024/02/01 01:57:53;;;;;;;4.83;1.93;;;8.20;99.90;;;;;;5101710;28;20486;-81
2024/02/01 02:00:21;;;;;;;1.67;1.10;;;8.20;99.90;;;;;;5101900;28;20454;-80
2024/02/01 02:02:48;;;;;;;2.20;1.03;;;8.20;99.90;;;;;;5101003;28;20505;-80
2024/02/01 02:05:15;;;;;;;1.13;0.60;;;8.30;99.90;;;;;;5100884;28;20453;-80
2024/02/01 02:07:42;;;;;;;1.70;1.57;;;8.30;99.90;;;;;;5100927;28;20474;-80
2024/02/01 02:10:14;;;;;;;3.80;1.03;;;8.40;99.90;;;;;;5101804;28;20439;-80
2024/02/01 02:12:42;;;;;;;6.43;1.00;;;8.40;99.90;;;;;;5101110;28;20428;-80
2024/02/01 02:15:10;;;;;;;4.90;0.77;;;8.50;99.90;;;;;;5101018;28;20432;-81
2024/02/01 02:17:37;;;;;;;2.03;1.33;;;8.50;99.90;;;;;;5100679;28;20522;-80
2024/02/01 02:20:16;;;;;;;2.07;1.87;;;8.50;99.90;;;;;;5100429;28;20504;-80
2024/02/01 02:22:45;;;;;;;6.00;1.43;;;8.50;99.90;;;;;;5100728;28;20432;-80
2024/02/01 02:25:13;;;;;;;1.93;0.90;;;8.50;99.90;;;;;;5100429;28;20451;-80
2024/02/01 02:27:40;;;;;;;2.10;0.90;;;8.50;99.90;;;;;;5100237;28;20451;-80
2024/02/01 02:30:08;;;;;;;3.70;1.70;;;8.50;99.90;;;;;;5100284;28;20444;-81
2024/02/01 02:32:35;;;;;;;3.60;0.87;;;8.50;99.90;;;;;;5100028;28;20455;-80
2024/02/01 02:35:02;;;;;;;1.73;0.80;;;8.50;99.90;;;;;;5100977;28;20444;-81
2024/02/01 02:37:29;;;;;;;2.07;1.00;;;8.50;99.90;;;;;;5099822;28;21043;-82
2024/02/01 02:39:57;;;;;;;0.70;0.70;;;8.50;99.90;;;;;;5100405;28;20458;-80
2024/02/01 02:42:24;;;;;;;2.07;1.20;;;8.50;99.90;;;;;;5099954;28;20505;-79
2024/02/01 02:44:51;;;;;;;1.40;1.00;;;8.50;99.90;;;;;;5100509;28;20941;-80
2024/02/01 02:47:18;;;;;;;2.67;1.30;;;8.50;99.90;;;;;;5100159;28;20445;-80
2024/02/01 02:49:46;;;;;;;1.97;1.00;;;8.50;99.90;;;;;;5099707;28;20444;-81
2024/02/01 02:52:13;;;;;;;1.40;1.30;;;8.50;99.90;;;;;;5099280;28;20475;-81
2024/02/01 02:54:40;;;;;;;0.83;0.80;;;8.50;99.90;;;;;;5099580;28;20444;-82
2024/02/01 02:57:08;;;;;;;1.40;1.30;;;8.50;99.90;;;;;;5098539;28;20480;-81
2024/02/01 02:59:37;;;;;;;5.90;1.70;;;8.50;99.90;;;;;;5098750;28;20440;-82
2024/02/01 03:02:06;;;;;;;1.40;1.30;;;8.50;99.90;;;;;;5098727;28;20988;-82
2024/02/01 03:04:34;;;;;;;1.90;1.07;;;8.50;99.90;;;;;;5098955;28;20448;-81
2024/02/01 03:07:01;;;;;;;2.83;1.03;;;8.50;99.90;;;;;;5098361;28;20448;-81
2024/02/01 03:09:28;;;;;;;1.80;1.50;;;8.40;99.90;;;;;;5099108;28;20776;-80
2024/02/01 03:11:54;;;;;;;0.70;0.70;;;8.40;99.90;;;;;;5098215;28;20833;-82
2024/02/01 03:14:22;;;;;;;1.10;1.00;;;8.40;99.90;;;;;;5098710;28;20448;-80
2024/02/01 03:16:49;;;;;;;1.20;1.10;;;8.40;99.90;;;;;;5098716;28;20490;-80
2024/02/01 03:19:17;;;;;;;1.27;1.00;;;8.40;99.90;;;;;;5099225;28;20821;-80
2024/02/01 03:21:43;;;;;;;0.87;0.87;;;8.40;99.90;;;;;;5097994;28;20464;-80
2024/02/01 03:24:10;;;;;;;3.70;0.87;;;8.40;99.90;;;;;;5097771;28;20791;-80
2024/02/01 03:26:37;;;;;;;3.27;1.23;;;8.50;99.90;;;;;;5097880;28;20441;-80
2024/02/01 03:29:05;;;;;;;2.30;1.80;;;8.40;99.90;;;;;;5097714;28;20940;-80
2024/02/01 03:31:34;;;;;;;0.80;0.80;;;8.40;99.90;;;;;;5097796;28;20452;-80
2024/02/01 03:34:05;;;;;;;0.70;0.50;;;8.40;99.90;;;;;;5097827;28;20855;-80
2024/02/01 03:36:34;;;;;;;1.20;1.10;;;8.40;99.90;;;;;;5097439;28;20795;-80
2024/02/01 03:39:01;;;;;;;1.23;0.70;;;8.30;99.90;;;;;;5097596;28;20885;-80
2024/02/01 03:41:27;;;;;;;0.80;0.80;;;8.30;99.90;;;;;;5097711;28;20468;-80
2024/02/01 03:43:54;;;;;;;0.67;0.67;;;8.20;99.90;;;;;;5097528;28;20447;-80
2024/02/01 03:46:22;;;;;;;1.37;0.83;;;8.30;99.90;;;;;;5096884;28;20447;-81
2024/02/01 03:48:51;;;;;;;0.60;0.60;;;8.20;99.90;;;;;;5097090;28;20440;-81
2024/02/01 03:51:18;;;;;;;1.53;1.20;;;8.20;99.90;;;;;;5097229;28;20464;-81
2024/02/01 03:53:45;;;;;;;0.80;0.80;;;8.20;99.90;;;;;;5097067;28;20530;-82
2024/02/01 03:56:13;;;;;;;1.10;0.67;;;8.20;99.90;;;;;;5096847;28;20462;-81
2024/02/01 03:58:39;;;;;;;1.77;0.97;;;8.10;99.90;;;;;;5097077;28;20479;-81
2024/02/01 04:01:07;;;;;;;1.67;1.20;;;8.10;99.90;;;;;;5097108;28;20460;-81
2024/02/01 04:03:33;;;;;;;1.40;0.60;;;8.10;99.90;;;;;;5097157;28;20460;-80
2024/02/01 04:06:01;;;;;;;0.90;0.70;;;8.10;99.90;;;;;;5097165;28;20444;-81
2024/02/01 04:08:29;;;;;;;0.73;0.70;;;8.10;99.90;;;;;;5095888;28;20843;-80
2024/02/01 04:10:55;;;;;;;1.63;0.60;;;8.10;99.90;;;;;;5096028;28;20533;-80
2024/02/01 04:13:22;;;;;;;0.77;0.70;;;8.10;99.90;;;;;;5096405;28;20455;-80
2024/02/01 04:15:49;;;;;;;0.83;0.50;;;8.10;99.90;;;;;;5096618;28;20826;-81
2024/02/01 04:18:15;;;;;;;0.80;0.80;;;8.10;99.90;;;;;;5096729;28;20486;-80
2024/02/01 04:20:42;;;;;;;0.50;0.43;;;8.10;99.90;;;;;;5096705;28;20471;-81
2024/02/01 04:23:10;;;;;;;0.53;0.53;;;8.10;99.90;;;;;;5096496;28;20505;-81
2024/02/01 04:25:37;;;;;;;1.17;1.07;;;8.10;99.90;;;;;;5096700;28;20442;-80
2024/02/01 04:28:08;;;;;;;1.07;0.70;;;8.20;99.90;;;;;;5096168;28;20459;-80
2024/02/01 04:30:37;;;;;;;0.60;0.60;;;8.20;99.90;;;;;;5095954;28;20518;-81
2024/02/01 04:33:04;;;;;;;1.00;0.63;;;8.30;99.90;;;;;;5096113;28;20440;-80
2024/02/01 04:35:30;;;;;;;0.40;0.40;;;8.30;99.90;;;;;;5096126;28;20432;-81
2024/02/01 04:37:57;;;;;;;1.13;0.70;;;8.30;99.90;;;;;;5095934;28;20484;-81
2024/02/01 04:40:25;;;;;;;0.40;0.40;;;8.30;99.90;;;;;;5096001;28;20444;-80
2024/02/01 04:42:52;;;;;;;0.57;0.57;;;8.30;99.90;;;;;;5095927;28;20448;-80
2024/02/01 04:45:19;;;;;;;0.40;0.40;;;8.40;99.90;;;;;;5095949;28;20439;-81
2024/02/01 04:47:46;;;;;;;0.70;0.70;;;8.40;99.90;;;;;;5100753;28;20450;-81
2024/02/01 04:50:13;;;;;;;1.80;0.70;;;8.50;99.90;;;;;;5100769;28;20451;-82
2024/02/01 04:52:40;;;;;;;1.43;0.80;;;8.50;99.90;;;;;;5098684;28;20445;-81
2024/02/01 04:55:09;;;;;;;0.70;0.70;;;8.50;99.90;;;;;;5098787;28;20814;-81
2024/02/01 04:57:38;;;;;;;1.10;0.70;;;8.50;99.90;;;;;;5098404;28;20626;-81
2024/02/01 05:00:13;;;;;;;5.50;1.20;;;8.50;99.90;;;;;;5098659;28;20509;-81
2024/02/01 05:02:40;;;;;;;0.43;0.43;;;8.50;99.90;;;;;;5098739;28;20504;-81
2024/02/01 05:05:07;;;;;;;0.73;0.50;;;8.50;99.90;;;;;;5098323;28;20829;-81
2024/02/01 05:07:34;;;;;;;0.90;0.70;;;8.50;99.90;;;;;;5098464;28;20464;-81
2024/02/01 05:10:01;;;;;;;0.87;0.70;;;8.60;99.90;;;;;;5098951;28;20952;-81
2024/02/01 05:12:28;;;;;;;0.73;0.70;;;8.50;99.90;;;;;;5097921;28;20460;-81
2024/02/01 05:14:56;;;;;;;3.90;0.83;;;8.50;99.90;;;;;;5098583;28;20469;-81
2024/02/01 05:17:23;;;;;;;0.90;0.50;;;8.50;99.90;;;;;;5097819;28;20479;-81
2024/02/01 05:19:50;;;;;;;0.60;0.50;;;8.50;99.90;;;;;;5097716;28;20436;-81
2024/02/01 05:22:17;;;;;;;0.50;0.50;;;8.60;99.90;;;;;;5098392;28;20471;-81
2024/02/01 05:24:44;;;;;;;1.20;0.70;;;8.60;99.90;;;;;;5098187;28;20454;-81
2024/02/01 05:27:11;;;;;;;1.10;1.00;;;8.50;99.90;;;;;;5097987;28;20440;-81
2024/02/01 05:29:40;;;;;;;0.77;0.60;;;8.50;99.90;;;;;;5097930;28;20440;-81
2024/02/01 05:32:08;;;;;;;1.77;0.80;;;8.50;99.90;;;;;;5098140;28;20463;-81
2024/02/01 05:34:35;;;;;;;15.13;0.93;;;8.50;99.90;;;;;;5097991;28;20451;-81
2024/02/01 05:37:02;;;;;;;1.13;0.83;;;8.50;99.90;;;;;;5097217;28;20444;-80
2024/02/01 05:39:28;;;;;;;1.00;0.80;;;8.50;99.90;;;;;;5097903;28;20538;-81
2024/02/01 05:41:57;;;;;;;1.87;0.87;;;8.50;99.90;;;;;;5097691;28;20460;-81
2024/02/01 05:44:25;;;;;;;1.37;0.70;;;8.40;99.90;;;;;;5097602;28;20456;-81
2024/02/01 05:46:54;;;;;;;1.13;0.87;;;8.40;99.90;;;;;;5097883;28;20455;-81
2024/02/01 05:49:23;;;;;;;2.40;1.07;;;8.30;99.90;;;;;;5096972;28;20440;-81
2024/02/01 05:51:51;;;;;;;0.87;0.60;;;8.30;99.90;;;;;;5097483;28;20566;-81
2024/02/01 05:54:19;;;;;;;1.57;0.70;;;8.30;99.90;;;;;;5097453;28;20444;-81
2024/02/01 05:56:46;;;;;;;0.33;0.33;;;8.30;99.90;;;;;;5097269;28;20440;-81
2024/02/01 05:59:14;;;;;;;0.80;0.80;;;8.30;99.90;;;;;;5097445;28;20484;-81
2024/02/01 06:01:41;;;;;;;1.97;0.80;;;8.30;99.90;;;;;;5097204;28;20525;-81
2024/02/01 06:04:08;;;;;;;0.83;0.83;;;8.30;99.90;;;;;;5096600;28;20440;-81
2024/02/01 06:06:39;;;;;;;1.20;0.70;;;8.40;99.90;;;;;;5097171;28;20436;-81
2024/02/01 06:09:10;;;;;;;1.47;0.77;;;8.40;99.90;;;;;;5096460;28;20467;-81
2024/02/01 06:11:37;;;;;;;1.07;0.40;;;8.50;99.90;;;;;;5097715;28;20456;-81
2024/02/01 06:14:04;;;;;;;5.13;1.07;;;8.40;99.90;;;;;;5096650;28;20826;-81
2024/02/01 06:16:30;;;;;;;2.23;1.00;;;8.40;99.90;;;;;;5097147;28;20444;-81
2024/02/01 06:18:57;;;;;;;0.50;0.50;;;8.50;99.90;;;;;;5096324;28;20476;-81
2024/02/01 06:21:24;;;;;;;5.67;1.20;;;8.50;99.90;;;;;;5096677;28;20996;-81
2024/02/01 06:23:52;;;;;;;0.57;0.57;;;8.50;99.90;;;;;;5096591;28;20428;-81
2024/02/01 06:26:20;;;;;;;1.40;0.70;;;8.40;99.90;;;;;;5096806;28;20928;-81
2024/02/01 06:28:47;;;;;;;1.50;1.27;;;8.40;99.90;;;;;;5096735;28;20820;-81
2024/02/01 06:31:14;;;;;;;1.23;0.53;;;8.30;99.90;;;;;;5096628;28;20507;-81
2024/02/01 06:33:41;;;;;;;0.70;0.40;;;8.30;99.90;;;;;;5099807;28;20513;-81
2024/02/01 06:36:13;;;;;;;1.27;0.87;;;8.30;99.90;;;;;;5100278;28;20455;-80
2024/02/01 06:39:06;;;;;;;1.13;0.93;;;9.70;99.90;;;;;;5100880;28;20467;-80
2024/02/01 06:41:46;;;;;;;1.03;0.63;;;8.20;99.90;;;;;;5099708;28;20524;-81
2024/02/01 06:44:22;;;;;;;0.63;0.63;;;8.20;99.90;;;;;;5099618;28;20483;-81
2024/02/01 06:47:05;;;;;;;8.20;1.07;;;8.20;99.90;;;;;;5099388;28;20440;-81
2024/02/01 06:49:59;;;;;;;0.60;0.60;;;8.10;99.90;;;;;;5099134;28;20427;-81
2024/02/01 06:52:35;;;;;;;1.07;0.77;;;8.10;99.90;;;;;;5098880;28;20452;-80
2024/02/01 06:55:24;;;;;;;0.70;0.70;;;8.00;99.90;;;;;;5098588;28;20501;-80
2024/02/01 06:58:03;;;;;;;0.50;0.50;;;7.90;99.90;;;;;;5098417;28;20464;-80
2024/02/01 07:03:32;;;;;;;1.20;0.60;;;7.80;99.90;;;;;;5096853;28;20400;-80
2024/02/01 07:06:17;;;;;;;0.70;0.40;;;7.80;99.90;;;;;;5097571;28;20448;-80
2024/02/01 07:08:52;;;;;;;1.67;0.60;;;7.80;99.90;;;;;;5096546;28;21054;-79
2024/02/01 07:11:25;;;;;;;0.67;0.60;;;7.70;99.90;;;;;;5096337;28;20459;-80
2024/02/01 07:14:08;;;;;;;1.23;1.10;;;7.70;99.90;;;;;;5097461;28;20493;-79
2024/02/01 07:16:53;;;;;;;1.50;0.70;;;7.70;99.90;;;;;;5096405;28;20439;-80
2024/02/01 07:19:39;;;;;;;1.10;0.60;;;7.70;99.90;;;;;;5096576;28;20503;-79
2024/02/01 07:22:06;;;;;;;0.73;0.60;;;7.70;99.90;;;;;;5096181;28;20452;-79
2024/02/01 07:24:46;;;;;;;1.23;0.50;;;7.60;99.90;;;;;;5095976;28;20534;-80
2024/02/01 08:00:17;;;;;;;0.53;0.53;;;7.30;99.90;;;;;;5095062;28;20396;-80
2024/02/01 08:02:49;;;;;;;0.80;0.70;;;7.30;99.90;;;;;;5095635;28;20436;-80
2024/02/01 08:08:01;;;;;;;0.40;0.40;;;7.30;99.90;;;;;;5111598;28;21034;-80
2024/02/01 08:10:28;;;;;;;0.43;0.43;;;7.20;99.90;;;;;;5108309;28;20470;-80
2024/02/01 08:12:55;;;;;;;0.87;0.43;;;7.30;99.90;;;;;;5109777;28;20440;-80
2024/02/01 08:15:22;;;;;;;0.73;0.53;;;7.30;99.90;;;;;;5107005;28;20444;-81
2024/02/01 08:17:52;;;;;;;0.57;0.57;;;7.40;99.90;;;;;;5105291;28;20444;-81
2024/02/01 08:20:19;;;;;;;0.87;0.70;;;7.40;99.90;;;;;;5097649;28;20436;-81
2024/02/01 08:22:46;;;;;;;0.60;0.50;;;7.30;99.90;;;;;;5096009;28;20435;-80
2024/02/01 08:25:13;;;;;;;0.80;0.70;;;7.30;99.90;;;;;;5096754;28;20947;-81
2024/02/01 08:27:49;;;;;;;0.73;0.57;;;7.30;99.90;;;;;;5095646;28;20440;-81
2024/02/01 08:30:18;;;;;;;1.80;0.57;;;7.40;99.90;;;;;;5095443;28;20431;-81
2024/02/01 08:32:45;;;;;;;0.60;0.60;;;7.40;99.90;;;;;;5095191;28;20565;-80
2024/02/01 08:35:14;;;;;;;0.70;0.50;;;7.40;99.90;;;;;;5094947;28;20443;-80
2024/02/01 08:37:41;;;;;;;0.50;0.50;;;7.40;99.90;;;;;;5099385;28;20444;-80
2024/02/01 08:40:16;;;;;;;0.73;0.70;;;7.40;99.90;;;;;;5094525;28;20570;-80
2024/02/01 08:42:47;;;;;;;0.50;0.50;;;7.40;99.90;;;;;;5094378;28;20439;-80
2024/02/01 08:45:14;;;;;;;0.60;0.50;;;7.40;99.90;;;;;;5095156;28;20807;-80
2024/02/01 08:47:41;;;;;;;0.40;0.30;;;7.40;99.90;;;;;;5096859;28;20963;-80
2024/02/01 08:50:09;;;;;;;1.20;1.20;;;7.50;99.90;;;;;;5094519;28;20440;-81
2024/02/01 08:52:44;;;;;;;0.60;0.60;;;7.50;99.90;;;;;;5094256;28;20452;-80
2024/02/01 08:55:13;;;;;;;1.93;0.70;;;7.40;99.90;;;;;;5094405;28;20427;-81
2024/02/01 08:57:40;;;;;;;2.60;0.70;;;7.30;99.90;;;;;;5094344;28;20544;-80
2024/02/01 09:00:21;;;;;;;0.30;0.30;;;7.30;99.90;;;;;;5094306;28;20486;-80
2024/02/01 09:03:02;;;;;;;0.53;0.53;;;7.30;99.90;;;;;;5094165;28;20428;-81
2024/02/01 09:05:30;;;;;;;1.53;0.93;;;7.40;99.90;;;;;;5094865;28;20438;-80
2024/02/01 09:07:58;;;;;;;0.60;0.60;;;7.30;99.90;;;;;;5093645;28;20478;-80
2024/02/01 09:10:25;;;;;;;2.97;1.13;;;7.20;99.90;;;;;;5093852;28;20456;-80
2024/02/01 09:12:51;;;;;;;1.27;0.70;;;7.20;99.90;;;;;;5094042;28;20428;-81
2024/02/01 09:15:18;;;;;;;0.40;0.40;;;7.30;99.90;;;;;;5093938;28;20451;-80
2024/02/01 09:17:46;;;;;;;1.13;0.80;;;7.30;99.90;;;;;;5093801;28;20471;-80
2024/02/01 09:20:18;;;;;;;1.60;0.60;;;7.40;99.90;;;;;;5093809;28;20537;-81
2024/02/01 09:22:46;;;;;;;0.70;0.60;;;7.50;99.90;;;;;;5094071;28;20428;-81
2024/02/01 09:25:15;;;;;;;0.47;0.47;;;7.50;99.90;;;;;;5093904;28;20487;-80
2024/02/01 09:27:44;;;;;;;0.70;0.70;;;7.40;99.90;;;;;;5093514;28;20809;-80
2024/02/01 09:30:11;;;;;;;0.40;0.40;;;7.50;99.90;;;;;;5093837;28;20436;-81
2024/02/01 09:32:38;;;;;;;3.13;0.60;;;7.40;99.90;;;;;;5093524;28;20929;-80
2024/02/01 09:35:07;;;;;;;0.80;0.50;;;7.40;99.90;;;;;;5093712;28;20862;-80
2024/02/01 09:37:33;;;;;;;0.90;0.50;;;7.40;99.90;;;;;;5093780;28;20436;-81
2024/02/01 09:40:01;;;;;;;1.00;0.70;;;7.40;99.90;;;;;;5093525;28;20471;-81
2024/02/01 09:42:29;;;;;;;0.50;0.50;;;7.40;99.90;;;;;;5095077;28;20834;-81
2024/02/01 09:44:58;;;;;;;3.10;0.40;;;7.50;99.90;;;;;;5094482;28;20438;-80
2024/02/01 09:47:25;;;;;;;1.00;0.77;;;7.50;99.90;;;;;;5094239;28;20964;-81
2024/02/01 09:49:54;;;;;;;0.40;0.40;;;7.50;99.90;;;;;;5094084;28;20436;-81
2024/02/01 09:52:22;;;;;;;0.60;0.43;;;7.40;99.90;;;;;;5093934;28;20495;-81
2024/02/01 09:54:49;;;;;;;0.60;0.40;;;7.50;99.90;;;;;;5093780;28;20451;-81
2024/02/01 09:57:16;;;;;;;0.87;0.60;;;7.50;99.90;;;;;;5093710;28;20470;-81
2024/02/01 09:59:45;;;;;;;0.80;0.60;;;7.60;99.90;;;;;;5093404;28;21013;-81
2024/02/01 10:02:12;;;;;;;0.40;0.40;;;7.70;99.90;;;;;;5093425;28;20490;-80
2024/02/01 10:04:40;;;;;;;0.93;0.40;;;7.70;99.90;;;;;;5094018;28;20489;-80
2024/02/01 10:07:08;;;;;;;1.17;0.63;;;7.80;99.90;;;;;;5094455;28;20492;-81
2024/02/01 10:09:35;;;;;;;0.80;0.60;;;7.80;99.90;;;;;;5098964;28;20446;-81
2024/02/01 10:12:02;;;;;;;0.50;0.43;;;7.80;99.90;;;;;;5098629;28;20460;-82
2024/02/01 10:14:37;;;;;;;0.40;0.30;;;7.80;99.90;;;;;;5097653;28;20790;-81
2024/02/01 10:17:06;;;;;;;0.50;0.50;;;7.90;99.90;;;;;;5098462;28;20434;-81
2024/02/01 10:19:34;;;;;;;0.63;0.43;;;7.90;99.90;;;;;;5098162;28;20532;-82
2024/02/01 10:22:08;;;;;;;0.70;0.53;;;8.00;99.90;;;;;;5098506;28;20541;-82
2024/02/01 10:24:44;;;;;;;1.53;0.60;;;8.10;99.90;;;;;;5098880;28;20460;-82
2024/02/01 10:27:11;;;;;;;0.70;0.57;;;8.30;99.90;;;;;;5100077;28;20456;-82
2024/02/01 10:29:40;;;;;;;0.40;0.40;;;8.40;99.90;;;;;;5100014;28;20991;-82
2024/02/01 10:32:16;;;;;;;0.60;0.50;;;8.90;99.90;;;;;;5100054;28;20996;-82
2024/02/01 10:34:50;;;;;;;0.80;0.50;;;8.60;99.90;;;;;;5099887;28;20428;-82
2024/02/01 10:37:18;;;;;;;0.40;0.40;;;8.70;99.90;;;;;;5100001;28;20477;-82
2024/02/01 10:39:54;;;;;;;0.90;0.70;;;8.90;99.90;;;;;;5099015;28;21011;-82
2024/02/01 10:42:23;;;;;;;0.50;0.40;;;8.90;99.90;;;;;;5098644;28;20455;-82
2024/02/01 10:44:54;;;;;;;0.40;0.30;;;9.00;99.90;;;;;;5099001;28;20847;-82
2024/02/01 10:47:30;;;;;;;1.47;0.70;;;9.00;99.90;;;;;;5099081;28;20440;-81
2024/02/01 10:49:57;;;;;;;0.60;0.37;;;9.20;99.90;;;;;;5099546;28;20416;-82
2024/02/01 10:52:27;;;;;;;0.40;0.40;;;9.30;99.90;;;;;;5098503;28;20464;-82
2024/02/01 10:54:56;;;;;;;1.03;1.03;;;9.30;99.90;;;;;;5099031;28;20530;-80
2024/02/01 10:57:23;;;;;;;0.40;0.40;;;9.30;99.90;;;;;;5099328;28;20509;-81
2024/02/01 10:59:51;;;;;;;0.40;0.40;;;9.30;99.90;;;;;;5098791;28;20480;-80
2024/02/01 11:02:19;;;;;;;0.30;0.30;;;9.30;99.90;;;;;;5100443;28;20460;-79
2024/02/01 11:04:48;;;;;;;0.37;0.30;;;9.30;99.90;;;;;;5102265;28;20448;-79
2024/02/01 11:07:24;;;;;;;1.70;0.37;;;9.30;99.90;;;;;;5101752;28;20476;-80
2024/02/01 11:09:52;;;;;;;0.40;0.40;;;9.30;99.90;;;;;;5101067;28;20438;-80
2024/02/01 11:12:24;;;;;;;0.30;0.30;;;9.30;99.90;;;;;;5097267;28;20551;-80
2024/02/01 11:14:52;;;;;;;0.30;0.30;;;9.30;99.90;;;;;;5097420;28;20436;-80
2024/02/01 11:17:20;;;;;;;0.30;0.30;;;9.20;99.90;;;;;;5097212;28;20535;-80
2024/02/01 11:19:51;;;;;;;0.30;0.30;;;9.10;99.90;;;;;;5096879;28;20533;-80
2024/02/01 11:22:19;;;;;;;0.50;0.30;;;9.10;99.90;;;;;;5097003;28;20972;-78
2024/02/01 11:24:46;;;;;;;0.30;0.20;;;9.10;99.90;;;;;;5096675;28;20458;-80
2024/02/01 11:27:14;;;;;;;0.33;0.27;;;9.00;99.90;;;;;;5097358;28;20448;-80
2024/02/01 11:29:46;;;;;;;0.40;0.30;;;9.00;99.90;;;;;;5100692;28;20436;-80
2024/02/01 11:32:17;;;;;;;0.30;0.20;;;9.00;99.90;;;;;;5097646;28;20511;-79
2024/02/01 11:34:49;;;;;;;0.83;0.40;;;9.00;99.90;;;;;;5096976;28;20424;-79
2024/02/01 11:37:17;;;;;;;0.40;0.40;;;9.00;99.90;;;;;;5096825;28;20948;-79
2024/02/01 11:39:45;;;;;;;0.50;0.50;;;9.00;99.90;;;;;;5097037;28;20484;-79
2024/02/01 11:42:12;;;;;;;0.50;0.40;;;8.90;99.90;;;;;;5095669;28;20463;-79
2024/02/01 11:44:40;;;;;;;0.30;0.30;;;8.90;99.90;;;;;;5096172;28;20444;-79
2024/02/01 11:47:08;;;;;;;0.30;0.20;;;9.00;99.90;;;;;;5096523;28;20444;-79
2024/02/01 11:49:36;;;;;;;0.30;0.30;;;9.00;99.90;;;;;;5095955;28;20436;-79
2024/02/01 11:52:22;;;;;;;0.30;0.20;;;9.00;99.90;;;;;;5096025;28;20464;-79
2024/02/01 11:54:52;;;;;;;0.30;0.27;;;9.10;99.90;;;;;;5096108;28;20440;-79
2024/02/01 11:57:21;;;;;;;0.30;0.30;;;9.20;99.90;;;;;;5095885;28;20454;-79
2024/02/01 11:59:48;;;;;;;0.43;0.40;;;9.30;99.90;;;;;;5095491;28;20476;-79
2024/02/01 12:02:16;;;;;;;0.30;0.30;;;9.50;99.90;;;;;;5095375;28;20463;-79
2024/02/01 12:04:45;;;;;;;0.30;0.20;;;9.70;99.90;;;;;;5096041;28;20490;-79
2024/02/01 12:07:14;;;;;;;0.30;0.30;;;9.80;99.90;;;;;;5095259;28;20921;-80
2024/02/01 12:09:41;;;;;;;0.30;0.30;;;9.80;99.90;;;;;;5095404;28;20452;-79
2024/02/01 12:12:13;;;;;;;0.40;0.30;;;9.80;99.90;;;;;;5095407;28;20468;-79
2024/02/01 12:14:41;;;;;;;0.40;0.30;;;9.70;99.90;;;;;;5094940;28;20475;-79
2024/02/01 12:17:08;;;;;;;0.30;0.30;;;9.60;99.90;;;;;;5096460;28;20436;-77
2024/02/01 12:19:37;;;;;;;0.30;0.27;;;9.60;99.90;;;;;;5095538;28;20472;-79
2024/02/01 12:22:05;;;;;;;0.30;0.30;;;9.60;99.90;;;;;;5095746;28;20504;-80
2024/02/01 12:24:34;;;;;;;0.30;0.30;;;9.60;99.90;;;;;;5095386;28;20439;-79
2024/02/01 12:27:02;;;;;;;0.57;0.30;;;9.60;99.90;;;;;;5095887;28;20425;-80
2024/02/01 12:29:30;;;;;;;0.30;0.30;;;9.60;99.90;;;;;;5094428;28;20467;-80
2024/02/01 12:31:56;;;;;;;0.30;0.30;;;9.70;99.90;;;;;;5095195;28;20468;-80
2024/02/01 12:34:24;;;;;;;0.37;0.30;;;9.70;99.90;;;;;;5096301;28;20442;-78
2024/02/01 12:36:51;;;;;;;0.30;0.30;;;9.80;99.90;;;;;;5095116;28;20967;-79
2024/02/01 12:39:18;;;;;;;0.30;0.20;;;9.90;99.90;;;;;;5095028;28;20498;-79
2024/02/01 12:41:46;;;;;;;0.40;0.30;;;10.00;99.90;;;;;;5094818;28;20475;-79
2024/02/01 12:44:14;;;;;;;0.40;0.40;;;10.20;99.90;;;;;;5094794;28;20424;-79
2024/02/01 12:46:43;;;;;;;0.30;0.30;;;10.30;99.90;;;;;;5094731;28;20501;-79
2024/02/01 12:49:12;;;;;;;0.30;0.30;;;10.40;99.90;;;;;;5094857;28;20433;-79
2024/02/01 12:51:39;;;;;;;0.40;0.30;;;10.30;99.90;;;;;;5094504;28;20456;-79
2024/02/01 12:54:08;;;;;;;0.40;0.30;;;10.30;99.90;;;;;;5094507;28;20448;-79
2024/02/01 12:56:35;;;;;;;0.30;0.30;;;10.30;99.90;;;;;;5094794;28;20443;-79
2024/02/01 12:59:04;;;;;;;0.40;0.40;;;10.30;99.90;;;;;;5094652;28;20443;-79
2024/02/01 13:01:32;;;;;;;0.30;0.30;;;10.20;99.90;;;;;;5094745;28;20464;-79
2024/02/01 13:04:00;;;;;;;0.40;0.40;;;10.10;99.90;;;;;;5094149;28;20447;-79
2024/02/01 13:06:27;;;;;;;0.40;0.40;;;10.00;99.90;;;;;;5094176;28;20936;-79
2024/02/01 13:08:54;;;;;;;0.40;0.30;;;10.00;99.90;;;;;;5093914;28;20972;-79
2024/02/01 13:11:25;;;;;;;0.40;0.37;;;9.90;99.90;;;;;;5094375;28;20456;-79
2024/02/01 13:13:52;;;;;;;0.30;0.30;;;9.90;99.90;;;;;;5094759;28;20435;-79
2024/02/01 13:16:19;;;;;;;0.40;0.40;;;9.90;99.90;;;;;;5094580;28;20432;-79
2024/02/01 13:18:46;;;;;;;0.50;0.40;;;9.80;99.90;;;;;;5094093;28;20448;-79
2024/02/01 13:21:14;;;;;;;1.00;0.60;;;9.70;99.90;;;;;;5094719;28;20862;-79
2024/02/01 13:23:40;;;;;;;0.60;0.30;;;9.60;99.90;;;;;;5094341;28;20547;-79
2024/02/01 13:26:10;;;;;;;0.50;0.30;;;9.50;99.90;;;;;;5095192;28;20432;-79
2024/02/01 13:28:37;;;;;;;0.50;0.30;;;9.40;99.90;;;;;;5094961;28;20454;-79
2024/02/01 13:31:04;;;;;;;0.43;0.43;;;9.40;99.90;;;;;;5094929;28;21098;-79
2024/02/01 13:33:31;;;;;;;0.40;0.40;;;9.30;99.90;;;;;;5094706;28;20444;-79
2024/02/01 13:35:58;;;;;;;0.40;0.30;;;9.30;99.90;;;;;;5094467;28;20444;-79
2024/02/01 13:38:26;;;;;;;0.50;0.40;;;9.20;99.90;;;;;;5094489;28;20451;-79
2024/02/01 13:40:54;;;;;;;0.40;0.40;;;9.20;99.90;;;;;;5094795;28;20484;-79
2024/02/01 13:43:20;;;;;;;1.07;0.40;;;9.20;99.90;;;;;;5099033;28;20447;-79